createdAt,value
2022-10-02T00:01:51.649Z,11.81
2022-10-02T00:04:23.887Z,11.79
2022-10-02T00:06:52.637Z,11.81
2022-10-02T00:09:25.583Z,11.84
2022-10-02T00:11:55.248Z,11.86
2022-10-02T00:14:24.270Z,11.76
2022-10-02T00:16:55.160Z,11.75
2022-10-02T00:19:23.070Z,11.76
2022-10-02T00:22:08.535Z,11.78
2022-10-02T00:24:40.398Z,11.70
2022-10-02T00:27:27.634Z,11.69
2022-10-02T00:29:57.554Z,11.74
2022-10-02T00:32:32.775Z,11.68
2022-10-02T00:35:28.177Z,11.64
2022-10-02T00:38:01.400Z,11.70
2022-10-02T00:40:41.027Z,11.63
2022-10-02T00:43:22.847Z,11.67
2022-10-02T00:46:04.682Z,11.76
2022-10-02T00:49:03.549Z,11.70
2022-10-02T00:51:49.390Z,11.57
2022-10-02T00:54:44.469Z,11.59
2022-10-02T00:57:16.554Z,11.61
2022-10-02T00:59:55.704Z,11.65
2022-10-02T01:02:49.979Z,11.60
2022-10-02T01:05:27.351Z,11.50
2022-10-02T01:07:56.479Z,11.46
2022-10-02T01:10:25.966Z,11.49
2022-10-02T01:12:54.306Z,11.40
2022-10-02T01:15:23.679Z,11.46
2022-10-02T01:17:53.059Z,11.41
2022-10-02T01:20:27.099Z,11.40
2022-10-02T01:23:00.389Z,11.35
2022-10-02T01:25:29.834Z,11.33
2022-10-02T01:27:58.027Z,11.24
2022-10-02T01:30:26.191Z,11.31
2022-10-02T01:32:56.646Z,11.31
2022-10-02T01:35:27.806Z,11.35
2022-10-02T01:37:56.442Z,11.39
2022-10-02T01:40:26.495Z,11.38
2022-10-02T01:42:56.369Z,11.38
2022-10-02T01:45:34.068Z,11.42
2022-10-02T01:48:05.336Z,11.34
2022-10-02T01:50:40.240Z,11.37
2022-10-02T01:53:13.221Z,11.33
2022-10-02T01:55:42.121Z,11.36
2022-10-02T01:58:20.474Z,11.35
2022-10-02T02:00:57.097Z,11.34
2022-10-02T02:03:31.502Z,11.35
2022-10-02T02:06:04.515Z,11.35
2022-10-02T02:08:32.965Z,11.30
2022-10-02T02:11:07.456Z,11.29
2022-10-02T02:13:42.768Z,11.20
2022-10-02T02:16:18.473Z,11.20
2022-10-02T02:18:50.276Z,11.21
2022-10-02T02:21:23.765Z,11.25
2022-10-02T02:23:52.644Z,11.24
2022-10-02T02:26:21.328Z,11.27
2022-10-02T02:28:53.689Z,11.36
2022-10-02T02:31:24.876Z,11.41
2022-10-02T02:33:55.968Z,11.39
2022-10-02T02:36:26.472Z,11.41
2022-10-02T02:38:56.801Z,11.41
2022-10-02T02:41:27.807Z,11.52
2022-10-02T02:44:00.774Z,11.54
2022-10-02T02:46:29.198Z,11.56
2022-10-02T02:48:59.741Z,11.58
2022-10-02T02:51:32.162Z,11.51
2022-10-02T02:54:03.002Z,11.46
2022-10-02T02:56:31.820Z,11.48
2022-10-02T02:59:03.459Z,11.50
2022-10-02T03:01:31.382Z,11.44
2022-10-02T03:03:59.202Z,11.43
2022-10-02T03:06:33.352Z,11.51
2022-10-02T03:09:02.589Z,11.43
2022-10-02T03:11:54.431Z,11.40
2022-10-02T03:14:38.444Z,11.35
2022-10-02T03:17:12.276Z,11.40
2022-10-02T03:19:44.379Z,11.34
2022-10-02T03:22:16.704Z,11.39
2022-10-02T03:24:48.010Z,11.36
2022-10-02T03:27:20.078Z,11.33
2022-10-02T03:29:53.109Z,11.28
2022-10-02T03:32:21.233Z,11.26
2022-10-02T03:34:49.730Z,11.21
2022-10-02T03:37:18.429Z,11.15
2022-10-02T03:39:46.610Z,11.14
2022-10-02T03:42:15.687Z,11.20
2022-10-02T03:44:43.990Z,11.13
2022-10-02T03:47:13.188Z,11.15
2022-10-02T03:49:41.491Z,11.10
2022-10-02T03:52:15.267Z,11.06
2022-10-02T03:54:43.512Z,11.05
2022-10-02T03:57:14.039Z,11.04
2022-10-02T03:59:45.537Z,11.06
2022-10-02T04:02:21.096Z,11.04
2022-10-02T04:04:51.061Z,11.03
2022-10-02T04:07:22.871Z,10.95
2022-10-02T04:09:55.451Z,10.92
2022-10-02T04:12:26.900Z,10.85
2022-10-02T04:14:58.161Z,10.95
2022-10-02T04:17:33.725Z,10.95
2022-10-02T04:20:05.205Z,10.92
2022-10-02T04:22:35.752Z,10.92
2022-10-02T04:25:06.579Z,10.86
2022-10-02T04:27:37.943Z,10.86
2022-10-02T04:30:09.038Z,10.94
2022-10-02T04:32:38.259Z,10.96
2022-10-02T04:35:14.864Z,10.96
2022-10-02T04:38:02.807Z,10.96
2022-10-02T04:40:39.401Z,10.93
2022-10-02T04:43:23.084Z,11.02
2022-10-02T04:46:00.810Z,10.96
2022-10-02T04:48:56.186Z,10.96
2022-10-02T04:51:40.903Z,10.96
2022-10-02T04:54:35.086Z,10.96
2022-10-02T04:57:17.003Z,11.00
2022-10-02T04:59:57.583Z,10.98
2022-10-02T05:02:35.544Z,10.96
2022-10-02T05:05:13.239Z,11.01
2022-10-02T05:08:05.580Z,11.05
2022-10-02T05:10:53.814Z,11.02
2022-10-02T05:13:33.355Z,11.08
2022-10-02T05:16:15.778Z,11.10
2022-10-02T05:18:59.291Z,11.12
2022-10-02T05:22:05.105Z,11.02
2022-10-02T05:24:48.526Z,11.06
2022-10-02T05:27:29.070Z,11.07
2022-10-02T05:30:09.423Z,11.04
2022-10-02T05:33:03.149Z,11.10
2022-10-02T05:35:57.594Z,11.00
2022-10-02T05:38:41.752Z,11.14
2022-10-02T05:41:14.256Z,11.14
2022-10-02T05:43:47.601Z,11.08
2022-10-02T05:46:19.283Z,11.04
2022-10-02T05:48:48.763Z,11.10
2022-10-02T05:51:22.224Z,11.13
2022-10-02T05:53:58.068Z,11.13
2022-10-02T05:56:32.358Z,11.19
2022-10-02T05:59:05.575Z,11.27
2022-10-02T06:01:35.608Z,11.33
2022-10-02T06:04:08.566Z,11.39
2022-10-02T06:06:39.147Z,11.54
2022-10-02T06:09:19.013Z,11.59
2022-10-02T06:11:51.455Z,11.75
2022-10-02T06:14:24.647Z,11.82
2022-10-02T06:16:56.730Z,11.80
2022-10-02T06:19:26.877Z,11.90
2022-10-02T06:21:57.411Z,11.89
2022-10-02T06:24:31.796Z,11.90
2022-10-02T06:27:04.189Z,12.00
2022-10-02T06:29:35.655Z,12.09
2022-10-02T06:32:13.547Z,12.09
2022-10-02T06:34:44.662Z,12.06
2022-10-02T06:37:37.346Z,12.16
2022-10-02T06:40:16.900Z,12.24
2022-10-02T06:42:53.034Z,12.24
2022-10-02T06:45:28.490Z,12.11
2022-10-02T06:48:07.532Z,12.21
2022-10-02T06:50:44.999Z,12.19
2022-10-02T06:53:25.178Z,12.19
2022-10-02T06:56:01.173Z,12.12
2022-10-02T06:58:43.614Z,12.11
2022-10-02T07:01:19.950Z,12.12
2022-10-02T07:04:06.702Z,12.17
2022-10-02T07:06:41.482Z,12.17
2022-10-02T07:09:34.363Z,12.30
2022-10-02T07:12:17.769Z,12.45
2022-10-02T07:15:21.208Z,12.67
2022-10-02T07:17:57.303Z,12.76
2022-10-02T07:20:34.420Z,12.82
2022-10-02T07:23:29.971Z,12.93
2022-10-02T07:26:11.912Z,13.01
2022-10-02T07:28:43.510Z,12.92
2022-10-02T07:31:18.817Z,13.09
2022-10-02T07:33:58.136Z,13.23
2022-10-02T07:36:36.155Z,13.31
2022-10-02T07:39:10.101Z,13.30
2022-10-02T07:42:15.180Z,13.52
2022-10-02T07:45:08.527Z,13.88
2022-10-02T07:47:41.464Z,14.07
2022-10-02T07:50:13.081Z,13.90
2022-10-02T07:52:47.692Z,13.82
2022-10-02T07:55:17.923Z,13.79
2022-10-02T07:57:53.258Z,13.81
2022-10-02T08:00:25.374Z,13.79
2022-10-02T08:02:56.215Z,13.89
2022-10-02T08:05:26.739Z,13.79
2022-10-02T08:07:56.747Z,13.79
2022-10-02T08:10:27.203Z,13.88
2022-10-02T08:13:00.974Z,13.86
2022-10-02T08:15:34.153Z,14.10
2022-10-02T08:18:30.193Z,14.22
2022-10-02T08:20:55.075Z,14.17
2022-10-02T08:23:26.279Z,14.11
2022-10-02T08:26:00.032Z,13.97
2022-10-02T08:28:32.882Z,13.93
2022-10-02T08:31:01.997Z,13.85
2022-10-02T08:33:32.411Z,13.79
2022-10-02T08:36:25.736Z,13.75
2022-10-02T08:38:55.018Z,13.72
2022-10-02T08:42:04.297Z,13.64
2022-10-02T08:45:14.829Z,13.88
2022-10-02T08:48:05.144Z,14.12
2022-10-02T08:50:52.827Z,14.06
2022-10-02T08:53:42.985Z,13.96
2022-10-02T08:56:32.882Z,13.89
2022-10-02T08:59:25.863Z,13.81
2022-10-02T09:02:29.068Z,13.98
2022-10-02T09:05:32.120Z,14.17
2022-10-02T09:08:29.364Z,14.26
2022-10-02T09:11:37.189Z,14.30
2022-10-02T09:14:24.450Z,14.14
2022-10-02T09:17:14.823Z,14.18
2022-10-02T09:19:50.989Z,14.20
2022-10-02T09:22:46.362Z,14.29
2022-10-02T09:25:24.620Z,14.49
2022-10-02T09:28:25.611Z,14.30
2022-10-02T09:31:22.716Z,14.36
2022-10-02T09:34:12.387Z,14.42
2022-10-02T09:37:02.194Z,14.13
2022-10-02T09:39:51.591Z,14.23
2022-10-02T09:42:40.441Z,14.58
2022-10-02T09:45:44.496Z,14.73
2022-10-02T09:48:45.957Z,15.05
2022-10-02T09:51:30.481Z,15.04
2022-10-02T09:54:22.001Z,14.92
2022-10-02T09:57:46.983Z,15.30
2022-10-02T10:00:23.543Z,15.17
2022-10-02T10:03:28.124Z,15.32
2022-10-02T10:06:11.892Z,15.75
2022-10-02T10:09:26.019Z,16.09
2022-10-02T10:12:23.238Z,15.92
2022-10-02T10:15:17.219Z,16.06
2022-10-02T10:18:36.361Z,15.58
2022-10-02T10:21:41.227Z,16.11
2022-10-02T10:24:36.910Z,16.20
2022-10-02T10:27:21.367Z,16.48
2022-10-02T10:30:18.689Z,16.68
2022-10-02T10:33:20.825Z,16.77
2022-10-02T10:36:36.754Z,16.14
2022-10-02T10:39:18.244Z,16.07
2022-10-02T10:42:01.081Z,15.75
2022-10-02T10:45:00.352Z,15.93
2022-10-02T10:47:53.084Z,16.81
2022-10-02T10:50:38.725Z,16.48
2022-10-02T10:53:22.495Z,16.06
2022-10-02T10:56:07.302Z,15.72
2022-10-02T10:58:52.754Z,16.22
2022-10-02T11:01:22.019Z,16.76
2022-10-02T11:04:03.231Z,17.02
2022-10-02T11:07:10.023Z,17.03
2022-10-02T11:10:08.579Z,16.66
2022-10-02T11:12:56.311Z,16.46
2022-10-02T11:15:42.122Z,16.83
2022-10-02T11:18:28.658Z,16.94
2022-10-02T11:21:15.096Z,17.05
2022-10-02T11:23:54.014Z,17.66
2022-10-02T11:26:27.821Z,17.26
2022-10-02T11:29:21.826Z,16.42
2022-10-02T11:32:21.105Z,16.89
2022-10-02T11:35:06.728Z,17.15
2022-10-02T11:38:09.113Z,17.28
2022-10-02T11:40:54.195Z,17.32
2022-10-02T11:43:54.730Z,17.90
2022-10-02T11:46:40.130Z,17.95
2022-10-02T11:49:20.266Z,17.27
2022-10-02T11:52:08.746Z,16.81
2022-10-02T11:54:45.536Z,16.72
2022-10-02T11:57:23.891Z,16.15
2022-10-02T12:00:06.954Z,16.29
2022-10-02T12:02:47.577Z,16.44
2022-10-02T12:05:24.171Z,16.84
2022-10-02T12:07:58.301Z,16.90
2022-10-02T12:10:42.639Z,16.84
2022-10-02T12:13:48.202Z,16.75
2022-10-02T12:16:24.010Z,17.07
2022-10-02T12:19:00.802Z,17.62
2022-10-02T12:21:55.171Z,17.74
2022-10-02T12:24:55.052Z,18.40
2022-10-02T12:27:33.427Z,18.31
2022-10-02T12:30:08.172Z,17.70
2022-10-02T12:33:07.354Z,18.02
2022-10-02T12:35:52.186Z,17.20
2022-10-02T12:38:29.449Z,16.49
2022-10-02T12:41:08.564Z,16.40
2022-10-02T12:44:05.250Z,15.82
2022-10-02T12:46:52.825Z,16.09
2022-10-02T12:49:33.994Z,16.03
2022-10-02T12:52:29.990Z,17.44
2022-10-02T12:55:29.391Z,17.73
2022-10-02T12:58:05.587Z,18.64
2022-10-02T13:00:49.492Z,18.81
2022-10-02T13:03:49.156Z,18.74
2022-10-02T13:06:48.676Z,19.18
2022-10-02T13:09:35.712Z,18.56
2022-10-02T13:12:14.323Z,18.83
2022-10-02T13:15:04.413Z,19.79
2022-10-02T13:17:37.183Z,19.09
2022-10-02T13:20:11.680Z,18.60
2022-10-02T13:22:45.166Z,18.63
2022-10-02T13:25:31.947Z,18.51
2022-10-02T13:28:13.642Z,18.32
2022-10-02T13:30:44.806Z,17.60
2022-10-02T13:33:36.575Z,16.91
2022-10-02T13:36:11.346Z,16.40
2022-10-02T13:39:01.013Z,16.21
2022-10-02T13:41:40.735Z,16.06
2022-10-02T13:44:20.070Z,16.27
2022-10-02T13:47:01.502Z,16.81
2022-10-02T13:49:40.910Z,17.15
2022-10-02T13:52:19.854Z,17.59
2022-10-02T13:55:02.401Z,17.72
2022-10-02T13:57:43.644Z,16.95
2022-10-02T14:00:14.622Z,17.57
2022-10-02T14:02:49.989Z,17.16
2022-10-02T14:05:27.426Z,17.22
2022-10-02T14:08:08.937Z,18.27
2022-10-02T14:10:45.534Z,17.79
2022-10-02T14:13:31.293Z,16.73
2022-10-02T14:16:11.077Z,16.52
2022-10-02T14:19:24.573Z,16.58
2022-10-02T14:21:54.742Z,17.61
2022-10-02T14:24:56.433Z,18.05
2022-10-02T14:27:58.344Z,18.58
2022-10-02T14:30:34.023Z,18.57
2022-10-02T14:33:06.653Z,18.95
2022-10-02T14:35:37.321Z,18.78
2022-10-02T14:38:28.043Z,19.36
2022-10-02T14:40:57.349Z,19.63
2022-10-02T14:44:07.730Z,18.92
2022-10-02T14:46:46.837Z,18.64
2022-10-02T14:49:35.473Z,18.52
2022-10-02T14:52:24.169Z,18.45
2022-10-02T14:55:16.914Z,18.05
2022-10-02T14:57:57.621Z,18.55
2022-10-02T15:00:26.984Z,18.42
2022-10-02T15:03:29.310Z,18.77
2022-10-02T15:06:09.585Z,18.59
2022-10-02T15:08:41.024Z,18.80
2022-10-02T15:11:20.588Z,19.36
2022-10-02T15:13:51.508Z,18.98
2022-10-02T15:16:39.402Z,18.77
2022-10-02T15:19:13.746Z,18.59
2022-10-02T15:21:45.012Z,18.42
2022-10-02T15:24:34.580Z,18.31
2022-10-02T15:27:15.961Z,18.22
2022-10-02T15:30:05.019Z,18.19
2022-10-02T15:32:44.796Z,17.68
2022-10-02T15:35:29.366Z,18.03
2022-10-02T15:38:12.889Z,17.75
2022-10-02T15:40:46.895Z,17.69
2022-10-02T15:43:32.521Z,17.76
2022-10-02T15:46:11.204Z,18.33
2022-10-02T15:49:01.795Z,17.61
2022-10-02T15:51:46.671Z,17.19
2022-10-02T15:54:25.373Z,16.74
2022-10-02T15:57:14.967Z,16.28
2022-10-02T15:59:59.951Z,15.87
2022-10-02T16:02:40.138Z,16.01
2022-10-02T16:05:19.189Z,15.94
2022-10-02T16:07:57.295Z,15.83
2022-10-02T16:10:26.379Z,15.68
2022-10-02T16:13:11.314Z,15.72
2022-10-02T16:15:48.502Z,15.71
2022-10-02T16:18:28.195Z,15.36
2022-10-02T16:21:22.391Z,15.28
2022-10-02T16:24:11.515Z,15.18
2022-10-02T16:27:15.503Z,15.08
2022-10-02T16:30:11.729Z,14.94
2022-10-02T16:32:48.875Z,14.96
2022-10-02T16:35:25.049Z,14.80
2022-10-02T16:37:59.888Z,14.76
2022-10-02T16:40:36.362Z,14.73
2022-10-02T16:43:38.526Z,14.73
2022-10-02T16:46:08.789Z,14.68
2022-10-02T16:48:42.361Z,14.62
2022-10-02T16:51:32.633Z,14.52
2022-10-02T16:54:05.955Z,14.48
2022-10-02T16:56:43.767Z,14.37
2022-10-02T16:59:15.389Z,14.36
2022-10-02T17:02:12.699Z,14.26
2022-10-02T17:04:44.286Z,14.25
2022-10-02T17:07:26.321Z,14.28
2022-10-02T17:10:00.224Z,14.14
2022-10-02T17:12:34.565Z,14.15
2022-10-02T17:15:15.029Z,14.13
2022-10-02T17:17:55.416Z,14.13
2022-10-02T17:20:25.931Z,14.16
2022-10-02T17:23:00.047Z,14.17
2022-10-02T17:25:31.458Z,14.07
2022-10-02T17:28:04.288Z,14.10
2022-10-02T17:30:58.483Z,14.05
2022-10-02T17:33:32.185Z,13.97
2022-10-02T17:36:04.033Z,13.97
2022-10-02T17:39:04.858Z,13.94
2022-10-02T17:41:43.590Z,13.91
2022-10-02T17:44:24.094Z,13.85
2022-10-02T17:47:10.423Z,13.94
2022-10-02T17:49:49.165Z,13.86
2022-10-02T17:52:43.914Z,13.76
2022-10-02T17:55:48.828Z,13.79
2022-10-02T17:58:20.491Z,13.78
2022-10-02T18:01:05.700Z,13.78
2022-10-02T18:03:47.627Z,13.74
2022-10-02T18:06:22.460Z,13.70
2022-10-02T18:09:10.842Z,13.77
2022-10-02T18:12:01.692Z,13.82
2022-10-02T18:15:11.719Z,13.63
2022-10-02T18:17:47.532Z,13.65
2022-10-02T18:20:21.179Z,13.60
2022-10-02T18:23:16.644Z,13.69
2022-10-02T18:25:57.710Z,13.62
2022-10-02T18:28:58.644Z,13.63
2022-10-02T18:31:55.250Z,13.53
2022-10-02T18:34:43.415Z,13.61
2022-10-02T18:37:29.100Z,13.59
2022-10-02T18:40:11.101Z,13.60
2022-10-02T18:42:51.267Z,13.63
2022-10-02T18:45:32.290Z,13.66
2022-10-02T18:48:10.660Z,13.65
2022-10-02T18:50:53.044Z,13.65
2022-10-02T18:53:42.251Z,13.66
2022-10-02T18:56:12.026Z,13.60
2022-10-02T18:58:53.580Z,13.63
2022-10-02T19:01:44.546Z,13.67
2022-10-02T19:04:40.311Z,13.70
2022-10-02T19:07:11.740Z,13.69
2022-10-02T19:09:42.013Z,13.72
2022-10-02T19:12:16.543Z,13.76
2022-10-02T19:14:46.909Z,13.79
2022-10-02T19:17:17.953Z,13.85
2022-10-02T19:19:47.107Z,13.98
2022-10-02T19:22:19.744Z,13.87
2022-10-02T19:24:50.229Z,13.83
2022-10-02T19:27:24.052Z,13.91
2022-10-02T19:29:55.807Z,13.94
2022-10-02T19:32:27.917Z,13.90
2022-10-02T19:35:04.135Z,13.91
2022-10-02T19:37:33.050Z,13.78
2022-10-02T19:40:03.061Z,13.77
2022-10-02T19:42:35.199Z,13.85
2022-10-02T19:45:04.965Z,13.86
2022-10-02T19:47:39.199Z,13.88
2022-10-02T19:50:08.525Z,13.83
2022-10-02T19:52:40.567Z,13.83
2022-10-02T19:55:20.551Z,13.83
2022-10-02T19:57:51.001Z,13.86
2022-10-02T20:00:20.033Z,13.74
2022-10-02T20:02:50.227Z,13.82
2022-10-02T20:05:21.967Z,13.78
2022-10-02T20:07:51.674Z,13.73
2022-10-02T20:10:23.297Z,13.77
2022-10-02T20:12:55.443Z,13.75
2022-10-02T20:15:39.131Z,13.75
2022-10-02T20:18:08.832Z,13.72
2022-10-02T20:20:37.389Z,13.78
2022-10-02T20:23:07.793Z,13.82
2022-10-02T20:25:39.030Z,13.86
2022-10-02T20:28:13.036Z,13.77
2022-10-02T20:30:43.452Z,13.72
2022-10-02T20:33:18.125Z,13.75
2022-10-02T20:35:48.173Z,13.73
2022-10-02T20:38:21.962Z,13.66
2022-10-02T20:40:53.319Z,13.64
2022-10-02T20:43:23.199Z,13.66
2022-10-02T20:45:59.291Z,13.63
2022-10-02T20:49:08.442Z,13.69
2022-10-02T20:51:54.385Z,13.66
2022-10-02T20:54:44.664Z,13.69
2022-10-02T20:57:59.727Z,13.69
2022-10-02T21:00:28.760Z,13.71
2022-10-02T21:03:18.619Z,13.62
2022-10-02T21:06:29.793Z,13.68
2022-10-02T21:09:23.084Z,13.66
2022-10-02T21:12:05.314Z,13.67
2022-10-02T21:14:53.204Z,13.61
2022-10-02T21:17:44.279Z,13.58
2022-10-02T21:20:50.409Z,13.53
2022-10-02T21:23:51.865Z,13.60
2022-10-02T21:26:50.400Z,13.50
2022-10-02T21:29:54.595Z,13.42
2022-10-02T21:32:59.441Z,13.48
2022-10-02T21:35:41.262Z,13.63
2022-10-02T21:38:47.256Z,13.64
2022-10-02T21:41:47.079Z,13.66
2022-10-02T21:44:48.097Z,13.60
2022-10-02T21:47:43.656Z,13.60
2022-10-02T21:50:37.779Z,13.62
2022-10-02T21:53:41.711Z,13.69
2022-10-02T21:56:39.739Z,13.64
2022-10-02T21:59:55.375Z,13.59
2022-10-02T22:03:01.308Z,13.61
2022-10-02T22:06:22.757Z,13.55
2022-10-02T22:09:04.578Z,13.63
2022-10-02T22:11:44.332Z,13.61
2022-10-02T22:14:14.703Z,13.63
2022-10-02T22:16:50.839Z,13.66
2022-10-02T22:19:30.752Z,13.62
2022-10-02T22:22:06.963Z,13.61
2022-10-02T22:24:45.414Z,13.60
2022-10-02T22:27:41.102Z,13.67
2022-10-02T22:30:21.250Z,13.59
2022-10-02T22:33:11.629Z,13.59
2022-10-02T22:36:03.447Z,13.54
2022-10-02T22:38:33.934Z,13.58
2022-10-02T22:41:06.911Z,13.55
2022-10-02T22:43:38.021Z,13.64
2022-10-02T22:46:08.932Z,13.62
2022-10-02T22:48:39.850Z,13.54
2022-10-02T22:51:14.319Z,13.65
2022-10-02T22:53:46.574Z,13.60
2022-10-02T22:56:22.618Z,13.58
2022-10-02T22:58:58.980Z,13.60
2022-10-02T23:01:31.538Z,13.64
2022-10-02T23:04:03.243Z,13.61
2022-10-02T23:06:36.470Z,13.65
2022-10-02T23:09:09.195Z,13.71
2022-10-02T23:11:41.733Z,13.60
2022-10-02T23:14:15.891Z,13.72
2022-10-02T23:16:47.154Z,13.66
2022-10-02T23:19:21.045Z,13.63
2022-10-02T23:21:52.902Z,13.70
2022-10-02T23:24:29.292Z,13.71
2022-10-02T23:27:07.805Z,13.74
2022-10-02T23:29:44.176Z,13.65
2022-10-02T23:32:18.963Z,13.65
2022-10-02T23:34:52.455Z,13.73
2022-10-02T23:37:23.953Z,13.75
2022-10-02T23:39:55.583Z,13.66
2022-10-02T23:42:27.764Z,13.67
2022-10-02T23:45:03.008Z,13.58
2022-10-02T23:47:39.087Z,13.60
2022-10-02T23:50:19.563Z,13.59
2022-10-02T23:52:59.510Z,13.59
2022-10-02T23:55:42.054Z,13.60
2022-10-02T23:58:30.441Z,13.57
